sensor_id;sensor_type;location;lat;lon;timestamp;pressure;altitude;pressure_sealevel;temperature;humidity
45621;BME280;31345;51.522;10.702;2023-11-19T00:01:42;98754.81;;;4.29;100.00
45621;BME280;31345;51.522;10.702;2023-11-19T00:04:16;98747.19;;;4.26;100.00
45621;BME280;31345;51.522;10.702;2023-11-19T00:06:48;98740.88;;;4.31;100.00
45621;BME280;31345;51.522;10.702;2023-11-19T00:09:16;98740.94;;;4.30;100.00
45621;BME280;31345;51.522;10.702;2023-11-19T00:11:44;98739.69;;;4.39;100.00
45621;BME280;31345;51.522;10.702;2023-11-19T00:14:12;98732.13;;;4.34;100.00
45621;BME280;31345;51.522;10.702;2023-11-19T00:16:40;98735.50;;;4.36;100.00
45621;BME280;31345;51.522;10.702;2023-11-19T00:19:12;98742.59;;;4.32;100.00
45621;BME280;31345;51.522;10.702;2023-11-19T00:21:41;98738.16;;;4.34;100.00
45621;BME280;31345;51.522;10.702;2023-11-19T00:24:09;98726.91;;;4.36;100.00
45621;BME280;31345;51.522;10.702;2023-11-19T00:26:38;98717.53;;;4.33;100.00
45621;BME280;31345;51.522;10.702;2023-11-19T00:29:06;98714.72;;;4.38;100.00
45621;BME280;31345;51.522;10.702;2023-11-19T00:31:38;98712.16;;;4.38;100.00
45621;BME280;31345;51.522;10.702;2023-11-19T00:34:11;98698.22;;;4.40;100.00
45621;BME280;31345;51.522;10.702;2023-11-19T00:36:41;98695.69;;;4.39;100.00
45621;BME280;31345;51.522;10.702;2023-11-19T00:39:11;98685.13;;;4.43;100.00
45621;BME280;31345;51.522;10.702;2023-11-19T00:41:41;98673.78;;;4.46;100.00
45621;BME280;31345;51.522;10.702;2023-11-19T00:44:08;98658.94;;;4.50;100.00
45621;BME280;31345;51.522;10.702;2023-11-19T00:46:42;98658.19;;;4.47;100.00
45621;BME280;31345;51.522;10.702;2023-11-19T00:49:14;98659.88;;;4.49;100.00
45621;BME280;31345;51.522;10.702;2023-11-19T00:51:43;98658.53;;;4.40;100.00
45621;BME280;31345;51.522;10.702;2023-11-19T00:54:11;98647.91;;;4.46;100.00
45621;BME280;31345;51.522;10.702;2023-11-19T00:56:39;98640.06;;;4.47;100.00
45621;BME280;31345;51.522;10.702;2023-11-19T00:59:07;98639.84;;;4.52;100.00
45621;BME280;31345;51.522;10.702;2023-11-19T01:01:35;98638.22;;;4.50;100.00
45621;BME280;31345;51.522;10.702;2023-11-19T01:04:07;98650.34;;;4.49;100.00
45621;BME280;31345;51.522;10.702;2023-11-19T01:06:43;98652.09;;;4.49;100.00
45621;BME280;31345;51.522;10.702;2023-11-19T01:09:15;98650.28;;;4.51;100.00
45621;BME280;31345;51.522;10.702;2023-11-19T01:11:48;98637.03;;;4.57;100.00
45621;BME280;31345;51.522;10.702;2023-11-19T01:14:21;98628.34;;;4.58;100.00
45621;BME280;31345;51.522;10.702;2023-11-19T01:16:48;98630.03;;;4.59;100.00
45621;BME280;31345;51.522;10.702;2023-11-19T01:19:21;98626.59;;;4.58;100.00
45621;BME280;31345;51.522;10.702;2023-11-19T01:21:56;98616.78;;;4.65;100.00
45621;BME280;31345;51.522;10.702;2023-11-19T01:24:24;98607.34;;;4.64;100.00
45621;BME280;31345;51.522;10.702;2023-11-19T01:26:54;98598.78;;;4.62;100.00
45621;BME280;31345;51.522;10.702;2023-11-19T01:29:23;98583.25;;;4.62;100.00
45621;BME280;31345;51.522;10.702;2023-11-19T01:31:56;98586.69;;;4.63;100.00
45621;BME280;31345;51.522;10.702;2023-11-19T01:34:29;98581.53;;;4.63;100.00
45621;BME280;31345;51.522;10.702;2023-11-19T01:36:58;98588.53;;;4.61;100.00
45621;BME280;31345;51.522;10.702;2023-11-19T01:39:25;98571.22;;;4.61;100.00
45621;BME280;31345;51.522;10.702;2023-11-19T01:41:53;98573.44;;;4.51;100.00
45621;BME280;31345;51.522;10.702;2023-11-19T01:44:21;98568.19;;;4.53;100.00
45621;BME280;31345;51.522;10.702;2023-11-19T01:46:54;98551.59;;;4.57;100.00
45621;BME280;31345;51.522;10.702;2023-11-19T01:49:27;98541.00;;;4.62;100.00
45621;BME280;31345;51.522;10.702;2023-11-19T01:52:01;98541.00;;;4.62;100.00
45621;BME280;31345;51.522;10.702;2023-11-19T01:54:34;98541.84;;;4.62;100.00
45621;BME280;31345;51.522;10.702;2023-11-19T01:57:06;98528.81;;;4.64;100.00
45621;BME280;31345;51.522;10.702;2023-11-19T01:59:34;98527.16;;;4.63;100.00
45621;BME280;31345;51.522;10.702;2023-11-19T02:02:02;98527.91;;;4.65;100.00
45621;BME280;31345;51.522;10.702;2023-11-19T02:04:29;98522.63;;;4.66;100.00
45621;BME280;31345;51.522;10.702;2023-11-19T02:06:57;98529.00;;;4.61;100.00
45621;BME280;31345;51.522;10.702;2023-11-19T02:09:27;98521.22;;;4.61;100.00
45621;BME280;31345;51.522;10.702;2023-11-19T02:11:56;98515.19;;;4.60;100.00
45621;BME280;31345;51.522;10.702;2023-11-19T02:14:25;98508.16;;;4.62;100.00
45621;BME280;31345;51.522;10.702;2023-11-19T02:16:58;98511.47;;;4.66;100.00
45621;BME280;31345;51.522;10.702;2023-11-19T02:19:30;98506.13;;;4.69;100.00
45621;BME280;31345;51.522;10.702;2023-11-19T02:21:58;98504.44;;;4.68;100.00
45621;BME280;31345;51.522;10.702;2023-11-19T02:24:33;98512.19;;;4.68;100.00
45621;BME280;31345;51.522;10.702;2023-11-19T02:27:04;98493.69;;;4.76;100.00
45621;BME280;31345;51.522;10.702;2023-11-19T02:29:37;98498.28;;;4.70;100.00
45621;BME280;31345;51.522;10.702;2023-11-19T02:32:10;98502.22;;;4.78;100.00
45621;BME280;31345;51.522;10.702;2023-11-19T02:34:39;98499.47;;;4.81;100.00
45621;BME280;31345;51.522;10.702;2023-11-19T02:37:07;98499.63;;;4.78;100.00
45621;BME280;31345;51.522;10.702;2023-11-19T02:39:41;98495.22;;;4.80;100.00
45621;BME280;31345;51.522;10.702;2023-11-19T02:42:14;98491.94;;;4.76;100.00
45621;BME280;31345;51.522;10.702;2023-11-19T02:44:48;98490.91;;;4.63;100.00
45621;BME280;31345;51.522;10.702;2023-11-19T02:47:15;98491.25;;;4.72;100.00
45621;BME280;31345;51.522;10.702;2023-11-19T02:49:48;98490.97;;;4.79;100.00
45621;BME280;31345;51.522;10.702;2023-11-19T02:52:21;98484.00;;;4.79;100.00
45621;BME280;31345;51.522;10.702;2023-11-19T02:54:54;98478.16;;;4.76;100.00
45621;BME280;31345;51.522;10.702;2023-11-19T02:57:22;98476.50;;;4.75;100.00
45621;BME280;31345;51.522;10.702;2023-11-19T02:59:52;98471.13;;;4.78;100.00
45621;BME280;31345;51.522;10.702;2023-11-19T03:02:27;98469.25;;;4.81;100.00
45621;BME280;31345;51.522;10.702;2023-11-19T03:05:00;98452.84;;;4.81;100.00
45621;BME280;31345;51.522;10.702;2023-11-19T03:07:33;98446.09;;;4.78;100.00
45621;BME280;31345;51.522;10.702;2023-11-19T03:10:01;98436.56;;;4.79;100.00
45621;BME280;31345;51.522;10.702;2023-11-19T03:12:32;98426.78;;;4.84;100.00
45621;BME280;31345;51.522;10.702;2023-11-19T03:15:07;98422.19;;;4.89;100.00
45621;BME280;31345;51.522;10.702;2023-11-19T03:17:41;98419.53;;;4.91;100.00
45621;BME280;31345;51.522;10.702;2023-11-19T03:20:10;98432.31;;;4.94;100.00
45621;BME280;31345;51.522;10.702;2023-11-19T03:22:46;98430.66;;;4.93;100.00
45621;BME280;31345;51.522;10.702;2023-11-19T03:25:19;98427.38;;;4.89;100.00
45621;BME280;31345;51.522;10.702;2023-11-19T03:27:52;98417.59;;;4.94;100.00
45621;BME280;31345;51.522;10.702;2023-11-19T03:30:22;98421.13;;;4.93;100.00
45621;BME280;31345;51.522;10.702;2023-11-19T03:32:49;98412.41;;;4.94;100.00
45621;BME280;31345;51.522;10.702;2023-11-19T03:35:17;98403.66;;;4.97;100.00
45621;BME280;31345;51.522;10.702;2023-11-19T03:37:45;98408.78;;;4.98;100.00
45621;BME280;31345;51.522;10.702;2023-11-19T03:40:13;98383.34;;;5.05;100.00
45621;BME280;31345;51.522;10.702;2023-11-19T03:42:46;98385.94;;;5.05;100.00
45621;BME280;31345;51.522;10.702;2023-11-19T03:45:20;98393.72;;;5.05;100.00
45621;BME280;31345;51.522;10.702;2023-11-19T03:47:50;98385.09;;;5.05;100.00
45621;BME280;31345;51.522;10.702;2023-11-19T03:50:22;98370.22;;;5.08;100.00
45621;BME280;31345;51.522;10.702;2023-11-19T03:52:55;98366.03;;;5.06;100.00
45621;BME280;31345;51.522;10.702;2023-11-19T03:55:24;98369.56;;;5.05;100.00
45621;BME280;31345;51.522;10.702;2023-11-19T03:57:55;98373.50;;;5.12;100.00
45621;BME280;31345;51.522;10.702;2023-11-19T04:00:23;98369.22;;;5.11;100.00
45621;BME280;31345;51.522;10.702;2023-11-19T04:02:57;98368.06;;;5.17;100.00
45621;BME280;31345;51.522;10.702;2023-11-19T04:05:25;98344.81;;;5.15;100.00
45621;BME280;31345;51.522;10.702;2023-11-19T04:07:52;98341.31;;;5.16;100.00
45621;BME280;31345;51.522;10.702;2023-11-19T04:10:20;98345.91;;;5.11;100.00
45621;BME280;31345;51.522;10.702;2023-11-19T04:12:53;98348.06;;;5.19;100.00
45621;BME280;31345;51.522;10.702;2023-11-19T04:15:26;98326.25;;;5.23;100.00
45621;BME280;31345;51.522;10.702;2023-11-19T04:17:53;98336.69;;;5.21;100.00
45621;BME280;31345;51.522;10.702;2023-11-19T04:20:28;98333.28;;;5.21;100.00
45621;BME280;31345;51.522;10.702;2023-11-19T04:22:56;98332.28;;;5.23;100.00
45621;BME280;31345;51.522;10.702;2023-11-19T04:25:23;98324.56;;;5.22;100.00
45621;BME280;31345;51.522;10.702;2023-11-19T04:27:52;98331.50;;;5.21;100.00
45621;BME280;31345;51.522;10.702;2023-11-19T04:30:24;98333.94;;;5.24;100.00
45621;BME280;31345;51.522;10.702;2023-11-19T04:32:52;98341.78;;;5.23;100.00
45621;BME280;31345;51.522;10.702;2023-11-19T04:35:25;98344.63;;;5.34;100.00
45621;BME280;31345;51.522;10.702;2023-11-19T04:37:59;98338.78;;;5.31;100.00
45621;BME280;31345;51.522;10.702;2023-11-19T04:40:27;98333.22;;;5.37;100.00
45621;BME280;31345;51.522;10.702;2023-11-19T04:42:54;98320.03;;;5.26;100.00
45621;BME280;31345;51.522;10.702;2023-11-19T04:45:22;98325.81;;;5.31;100.00
45621;BME280;31345;51.522;10.702;2023-11-19T04:47:49;98318.63;;;5.36;100.00
45621;BME280;31345;51.522;10.702;2023-11-19T04:50:22;98330.47;;;5.40;100.00
45621;BME280;31345;51.522;10.702;2023-11-19T04:52:49;98332.13;;;5.41;100.00
45621;BME280;31345;51.522;10.702;2023-11-19T04:55:18;98316.25;;;5.47;100.00
45621;BME280;31345;51.522;10.702;2023-11-19T04:57:46;98318.16;;;5.44;100.00
45621;BME280;31345;51.522;10.702;2023-11-19T05:00:14;98308.63;;;5.44;100.00
45621;BME280;31345;51.522;10.702;2023-11-19T05:02:42;98315.47;;;5.45;100.00
45621;BME280;31345;51.522;10.702;2023-11-19T05:05:09;98325.69;;;5.48;100.00
45621;BME280;31345;51.522;10.702;2023-11-19T05:07:37;98325.50;;;5.52;100.00
45621;BME280;31345;51.522;10.702;2023-11-19T05:10:10;98327.25;;;5.51;100.00
45621;BME280;31345;51.522;10.702;2023-11-19T05:12:39;98323.41;;;5.58;100.00
45621;BME280;31345;51.522;10.702;2023-11-19T05:15:12;98320.16;;;5.55;100.00
45621;BME280;31345;51.522;10.702;2023-11-19T05:17:45;98301.91;;;5.56;100.00
45621;BME280;31345;51.522;10.702;2023-11-19T05:20:18;98294.97;;;5.57;100.00
45621;BME280;31345;51.522;10.702;2023-11-19T05:22:50;98306.44;;;5.53;100.00
45621;BME280;31345;51.522;10.702;2023-11-19T05:25:19;98301.72;;;5.59;100.00
45621;BME280;31345;51.522;10.702;2023-11-19T05:27:48;98292.91;;;5.62;100.00
45621;BME280;31345;51.522;10.702;2023-11-19T05:30:21;98289.22;;;5.66;100.00
45621;BME280;31345;51.522;10.702;2023-11-19T05:32:54;98284.41;;;5.74;100.00
45621;BME280;31345;51.522;10.702;2023-11-19T05:35:22;98286.66;;;5.81;100.00
45621;BME280;31345;51.522;10.702;2023-11-19T05:37:50;98287.59;;;5.94;100.00
45621;BME280;31345;51.522;10.702;2023-11-19T05:40:22;98276.50;;;6.07;100.00
45621;BME280;31345;51.522;10.702;2023-11-19T05:42:51;98273.06;;;6.21;100.00
45621;BME280;31345;51.522;10.702;2023-11-19T05:45:24;98257.75;;;6.31;100.00
45621;BME280;31345;51.522;10.702;2023-11-19T05:47:57;98270.88;;;6.57;100.00
45621;BME280;31345;51.522;10.702;2023-11-19T05:50:29;98261.59;;;6.67;100.00
45621;BME280;31345;51.522;10.702;2023-11-19T05:52:57;98258.84;;;6.69;100.00
45621;BME280;31345;51.522;10.702;2023-11-19T05:55:30;98269.50;;;6.78;100.00
45621;BME280;31345;51.522;10.702;2023-11-19T05:57:59;98271.09;;;6.81;100.00
45621;BME280;31345;51.522;10.702;2023-11-19T06:00:26;98259.31;;;6.75;100.00
45621;BME280;31345;51.522;10.702;2023-11-19T06:02:54;98258.13;;;6.94;100.00
45621;BME280;31345;51.522;10.702;2023-11-19T06:05:21;98250.44;;;6.92;100.00
45621;BME280;31345;51.522;10.702;2023-11-19T06:07:54;98253.78;;;6.95;100.00
45621;BME280;31345;51.522;10.702;2023-11-19T06:10:29;98264.91;;;6.97;100.00
45621;BME280;31345;51.522;10.702;2023-11-19T06:13:04;98257.84;;;6.99;100.00
45621;BME280;31345;51.522;10.702;2023-11-19T06:15:37;98250.38;;;7.07;100.00
45621;BME280;31345;51.522;10.702;2023-11-19T06:18:05;98250.00;;;7.26;100.00
45621;BME280;31345;51.522;10.702;2023-11-19T06:20:33;98250.22;;;7.23;100.00
45621;BME280;31345;51.522;10.702;2023-11-19T06:23:05;98252.41;;;7.29;100.00
45621;BME280;31345;51.522;10.702;2023-11-19T06:25:33;98239.31;;;7.44;100.00
45621;BME280;31345;51.522;10.702;2023-11-19T06:28:08;98253.84;;;7.87;100.00
45621;BME280;31345;51.522;10.702;2023-11-19T06:30:40;98260.50;;;8.04;100.00
45621;BME280;31345;51.522;10.702;2023-11-19T06:33:13;98260.50;;;8.04;100.00
45621;BME280;31345;51.522;10.702;2023-11-19T06:35:46;98283.06;;;8.04;100.00
45621;BME280;31345;51.522;10.702;2023-11-19T06:38:14;98280.16;;;8.08;100.00
45621;BME280;31345;51.522;10.702;2023-11-19T06:40:42;98275.38;;;8.02;100.00
45621;BME280;31345;51.522;10.702;2023-11-19T06:43:11;98278.59;;;8.19;100.00
45621;BME280;31345;51.522;10.702;2023-11-19T06:45:45;98285.47;;;8.20;100.00
45621;BME280;31345;51.522;10.702;2023-11-19T06:48:17;98284.94;;;8.28;100.00
45621;BME280;31345;51.522;10.702;2023-11-19T06:50:45;98282.66;;;8.23;100.00
45621;BME280;31345;51.522;10.702;2023-11-19T06:53:18;98288.91;;;8.07;100.00
45621;BME280;31345;51.522;10.702;2023-11-19T06:55:45;98276.41;;;8.00;100.00
45621;BME280;31345;51.522;10.702;2023-11-19T06:58:19;98281.81;;;7.97;100.00
45621;BME280;31345;51.522;10.702;2023-11-19T07:00:52;98280.56;;;8.02;100.00
45621;BME280;31345;51.522;10.702;2023-11-19T07:03:19;98278.41;;;8.09;100.00
45621;BME280;31345;51.522;10.702;2023-11-19T07:05:47;98274.97;;;8.08;100.00
45621;BME280;31345;51.522;10.702;2023-11-19T07:08:15;98269.00;;;8.06;100.00
45621;BME280;31345;51.522;10.702;2023-11-19T07:10:47;98274.84;;;8.10;100.00
45621;BME280;31345;51.522;10.702;2023-11-19T07:13:15;98259.13;;;8.12;100.00
45621;BME280;31345;51.522;10.702;2023-11-19T07:15:44;98264.09;;;8.28;100.00
45621;BME280;31345;51.522;10.702;2023-11-19T07:18:17;98269.41;;;8.26;100.00
45621;BME280;31345;51.522;10.702;2023-11-19T07:20:49;98259.72;;;8.28;100.00
45621;BME280;31345;51.522;10.702;2023-11-19T07:23:17;98267.63;;;8.40;100.00
45621;BME280;31345;51.522;10.702;2023-11-19T07:25:49;98275.97;;;8.32;100.00
45621;BME280;31345;51.522;10.702;2023-11-19T07:28:24;98277.19;;;8.39;100.00
45621;BME280;31345;51.522;10.702;2023-11-19T07:30:53;98274.28;;;8.44;100.00
45621;BME280;31345;51.522;10.702;2023-11-19T07:33:27;98274.78;;;8.49;100.00
45621;BME280;31345;51.522;10.702;2023-11-19T07:36:00;98278.00;;;8.53;100.00
45621;BME280;31345;51.522;10.702;2023-11-19T07:38:27;98273.91;;;8.62;100.00
45621;BME280;31345;51.522;10.702;2023-11-19T07:40:55;98267.56;;;8.90;100.00
45621;BME280;31345;51.522;10.702;2023-11-19T07:43:28;98258.25;;;8.99;100.00
45621;BME280;31345;51.522;10.702;2023-11-19T07:45:57;98253.31;;;9.07;100.00
45621;BME280;31345;51.522;10.702;2023-11-19T07:48:30;98265.22;;;9.23;100.00
45621;BME280;31345;51.522;10.702;2023-11-19T07:50:58;98257.81;;;9.53;100.00
45621;BME280;31345;51.522;10.702;2023-11-19T07:53:31;98265.22;;;9.70;100.00
45621;BME280;31345;51.522;10.702;2023-11-19T07:55:59;98254.28;;;9.76;100.00
45621;BME280;31345;51.522;10.702;2023-11-19T07:58:26;98260.25;;;9.79;100.00
45621;BME280;31345;51.522;10.702;2023-11-19T08:00:54;98261.19;;;9.66;100.00
45621;BME280;31345;51.522;10.702;2023-11-19T08:03:23;98261.97;;;9.67;100.00
45621;BME280;31345;51.522;10.702;2023-11-19T08:05:51;98255.72;;;9.81;100.00
45621;BME280;31345;51.522;10.702;2023-11-19T08:08:18;98260.81;;;9.71;100.00
45621;BME280;31345;51.522;10.702;2023-11-19T08:10:46;98258.72;;;9.87;100.00
45621;BME280;31345;51.522;10.702;2023-11-19T08:13:18;98266.78;;;9.96;100.00
45621;BME280;31345;51.522;10.702;2023-11-19T08:15:46;98251.81;;;9.86;100.00
45621;BME280;31345;51.522;10.702;2023-11-19T08:18:14;98258.72;;;9.87;100.00
45621;BME280;31345;51.522;10.702;2023-11-19T08:20:43;98259.88;;;9.95;100.00
45621;BME280;31345;51.522;10.702;2023-11-19T08:23:11;98249.81;;;10.01;100.00
45621;BME280;31345;51.522;10.702;2023-11-19T08:25:39;98252.31;;;10.14;100.00
45621;BME280;31345;51.522;10.702;2023-11-19T08:28:06;98260.03;;;10.16;100.00
45621;BME280;31345;51.522;10.702;2023-11-19T08:30:39;98261.69;;;10.40;100.00
45621;BME280;31345;51.522;10.702;2023-11-19T08:33:07;98253.25;;;10.48;100.00
45621;BME280;31345;51.522;10.702;2023-11-19T08:35:34;98255.59;;;10.51;100.00
45621;BME280;31345;51.522;10.702;2023-11-19T08:38:03;98247.66;;;10.52;100.00
45621;BME280;31345;51.522;10.702;2023-11-19T08:40:31;98267.53;;;10.44;100.00
45621;BME280;31345;51.522;10.702;2023-11-19T08:42:58;98263.97;;;10.33;100.00
45621;BME280;31345;51.522;10.702;2023-11-19T08:45:26;98265.38;;;10.37;100.00
45621;BME280;31345;51.522;10.702;2023-11-19T08:47:54;98255.38;;;10.54;100.00
45621;BME280;31345;51.522;10.702;2023-11-19T08:50:26;98266.03;;;10.74;100.00
45621;BME280;31345;51.522;10.702;2023-11-19T08:52:59;98243.41;;;10.96;100.00
45621;BME280;31345;51.522;10.702;2023-11-19T08:55:28;98240.94;;;11.15;100.00
45621;BME280;31345;51.522;10.702;2023-11-19T08:57:55;98249.34;;;11.19;100.00
45621;BME280;31345;51.522;10.702;2023-11-19T09:00:24;98247.81;;;11.16;100.00
45621;BME280;31345;51.522;10.702;2023-11-19T09:02:51;98255.91;;;11.13;100.00
45621;BME280;31345;51.522;10.702;2023-11-19T09:05:19;98267.13;;;11.04;100.00
45621;BME280;31345;51.522;10.702;2023-11-19T09:07:47;98272.38;;;11.04;100.00
45621;BME280;31345;51.522;10.702;2023-11-19T09:10:15;98278.31;;;10.95;100.00
45621;BME280;31345;51.522;10.702;2023-11-19T09:12:44;98272.56;;;11.12;100.00
45621;BME280;31345;51.522;10.702;2023-11-19T09:15:12;98270.69;;;11.57;100.00
45621;BME280;31345;51.522;10.702;2023-11-19T09:17:45;98264.53;;;11.89;100.00
45621;BME280;31345;51.522;10.702;2023-11-19T09:20:13;98265.75;;;11.85;100.00
45621;BME280;31345;51.522;10.702;2023-11-19T09:22:46;98270.44;;;11.81;100.00
45621;BME280;31345;51.522;10.702;2023-11-19T09:25:14;98270.69;;;11.78;100.00
45621;BME280;31345;51.522;10.702;2023-11-19T09:27:43;98266.78;;;11.73;100.00
45621;BME280;31345;51.522;10.702;2023-11-19T09:30:12;98268.81;;;11.90;100.00
45621;BME280;31345;51.522;10.702;2023-11-19T09:32:45;98273.78;;;12.15;100.00
45621;BME280;31345;51.522;10.702;2023-11-19T09:35:12;98277.25;;;11.94;100.00
45621;BME280;31345;51.522;10.702;2023-11-19T09:37:46;98276.69;;;11.69;100.00
45621;BME280;31345;51.522;10.702;2023-11-19T09:40:18;98290.53;;;11.60;100.00
45621;BME280;31345;51.522;10.702;2023-11-19T09:42:52;98297.84;;;11.56;100.00
45621;BME280;31345;51.522;10.702;2023-11-19T09:45:21;98301.22;;;11.68;100.00
45621;BME280;31345;51.522;10.702;2023-11-19T09:47:51;98303.19;;;11.76;100.00
45621;BME280;31345;51.522;10.702;2023-11-19T09:50:20;98293.69;;;11.53;100.00
45621;BME280;31345;51.522;10.702;2023-11-19T09:52:48;98294.94;;;11.05;100.00
45621;BME280;31345;51.522;10.702;2023-11-19T09:55:15;98301.31;;;10.68;100.00
45621;BME280;31345;51.522;10.702;2023-11-19T09:57:49;98285.31;;;10.50;100.00
45621;BME280;31345;51.522;10.702;2023-11-19T10:00:20;98309.78;;;10.49;100.00
45621;BME280;31345;51.522;10.702;2023-11-19T10:02:54;98293.38;;;10.47;100.00
45621;BME280;31345;51.522;10.702;2023-11-19T10:05:28;98286.28;;;10.37;100.00
45621;BME280;31345;51.522;10.702;2023-11-19T10:07:56;98295.91;;;10.25;100.00
45621;BME280;31345;51.522;10.702;2023-11-19T10:10:24;98290.28;;;10.64;100.00
45621;BME280;31345;51.522;10.702;2023-11-19T10:12:51;98295.69;;;10.96;100.00
45621;BME280;31345;51.522;10.702;2023-11-19T10:15:22;98281.63;;;11.08;100.00
45621;BME280;31345;51.522;10.702;2023-11-19T10:17:55;98287.88;;;11.17;100.00
45621;BME280;31345;51.522;10.702;2023-11-19T10:20:24;98280.53;;;11.11;100.00
45621;BME280;31345;51.522;10.702;2023-11-19T10:22:52;98292.63;;;11.23;100.00
45621;BME280;31345;51.522;10.702;2023-11-19T10:25:24;98299.25;;;11.27;100.00
45621;BME280;31345;51.522;10.702;2023-11-19T10:27:53;98293.94;;;11.50;100.00
45621;BME280;31345;51.522;10.702;2023-11-19T10:30:23;98282.63;;;11.71;100.00
45621;BME280;31345;51.522;10.702;2023-11-19T10:33:03;98282.69;;;11.81;100.00
45621;BME280;31345;51.522;10.702;2023-11-19T10:35:32;98279.81;;;11.84;100.00
45621;BME280;31345;51.522;10.702;2023-11-19T10:38:00;98277.50;;;11.91;100.00
45621;BME280;31345;51.522;10.702;2023-11-19T10:40:38;98275.47;;;11.73;100.00
45621;BME280;31345;51.522;10.702;2023-11-19T10:43:12;98269.22;;;11.64;100.00
45621;BME280;31345;51.522;10.702;2023-11-19T10:45:46;98268.19;;;11.77;100.00
45621;BME280;31345;51.522;10.702;2023-11-19T10:48:14;98264.66;;;11.88;100.00
45621;BME280;31345;51.522;10.702;2023-11-19T10:50:43;98256.75;;;11.99;100.00
45621;BME280;31345;51.522;10.702;2023-11-19T10:53:12;98245.88;;;12.04;100.00
45621;BME280;31345;51.522;10.702;2023-11-19T10:55:40;98253.38;;;12.18;100.00
45621;BME280;31345;51.522;10.702;2023-11-19T10:58:08;98248.41;;;12.15;100.00
45621;BME280;31345;51.522;10.702;2023-11-19T11:00:38;98247.63;;;12.25;100.00
45621;BME280;31345;51.522;10.702;2023-11-19T11:03:12;98252.59;;;12.28;100.00
45621;BME280;31345;51.522;10.702;2023-11-19T11:05:48;98241.00;;;12.30;99.73
45621;BME280;31345;51.522;10.702;2023-11-19T11:08:16;98255.09;;;12.39;99.32
45621;BME280;31345;51.522;10.702;2023-11-19T11:10:53;98240.56;;;12.15;99.52
45621;BME280;31345;51.522;10.702;2023-11-19T11:13:23;98235.06;;;12.28;97.89
45621;BME280;31345;51.522;10.702;2023-11-19T11:15:51;98245.44;;;12.40;100.00
45621;BME280;31345;51.522;10.702;2023-11-19T11:18:22;98241.84;;;12.41;99.91
45621;BME280;31345;51.522;10.702;2023-11-19T11:20:52;98244.38;;;12.52;98.58
45621;BME280;31345;51.522;10.702;2023-11-19T11:26:43;98247.56;;;12.56;96.10
45621;BME280;31345;51.522;10.702;2023-11-19T11:29:26;98252.38;;;12.51;97.82
45621;BME280;31345;51.522;10.702;2023-11-19T11:32:10;98258.97;;;12.45;97.21
45621;BME280;31345;51.522;10.702;2023-11-19T11:35:01;98264.19;;;12.35;96.29
45621;BME280;31345;51.522;10.702;2023-11-19T11:37:39;98264.53;;;12.52;95.11
45621;BME280;31345;51.522;10.702;2023-11-19T11:40:14;98265.09;;;12.65;94.83
45621;BME280;31345;51.522;10.702;2023-11-19T11:42:42;98261.34;;;12.58;92.79
45621;BME280;31345;51.522;10.702;2023-11-19T11:45:11;98255.31;;;12.77;92.72
45621;BME280;31345;51.522;10.702;2023-11-19T11:48:14;98261.00;;;12.82;94.37
45621;BME280;31345;51.522;10.702;2023-11-19T11:50:57;98265.66;;;12.69;95.65
45621;BME280;31345;51.522;10.702;2023-11-19T11:53:25;98265.53;;;12.80;98.50
45621;BME280;31345;51.522;10.702;2023-11-19T11:56:02;98262.63;;;12.64;96.89
45621;BME280;31345;51.522;10.702;2023-11-19T11:58:32;98262.47;;;12.65;99.79
45621;BME280;31345;51.522;10.702;2023-11-19T12:01:06;98270.59;;;12.52;99.67
45621;BME280;31345;51.522;10.702;2023-11-19T12:03:38;98280.97;;;12.64;100.00
45621;BME280;31345;51.522;10.702;2023-11-19T12:06:13;98270.09;;;12.68;96.34
45621;BME280;31345;51.522;10.702;2023-11-19T12:08:41;98271.88;;;12.78;94.83
45621;BME280;31345;51.522;10.702;2023-11-19T12:11:13;98266.25;;;12.82;93.01
45621;BME280;31345;51.522;10.702;2023-11-19T12:13:54;98272.25;;;12.63;94.21
45621;BME280;31345;51.522;10.702;2023-11-19T12:16:24;98270.56;;;12.42;92.34
45621;BME280;31345;51.522;10.702;2023-11-19T12:18:54;98271.75;;;12.28;93.60
45621;BME280;31345;51.522;10.702;2023-11-19T12:21:30;98268.91;;;12.41;94.00
45621;BME280;31345;51.522;10.702;2023-11-19T12:23:59;98272.53;;;12.50;94.63
45621;BME280;31345;51.522;10.702;2023-11-19T12:26:39;98272.41;;;12.52;93.71
45621;BME280;31345;51.522;10.702;2023-11-19T12:29:12;98268.34;;;12.38;92.89
45621;BME280;31345;51.522;10.702;2023-11-19T12:31:44;98265.75;;;12.06;92.49
45621;BME280;31345;51.522;10.702;2023-11-19T12:34:17;98277.88;;;11.86;94.04
45621;BME280;31345;51.522;10.702;2023-11-19T12:36:46;98273.81;;;11.72;93.76
45621;BME280;31345;51.522;10.702;2023-11-19T12:39:18;98267.59;;;11.73;94.05
45621;BME280;31345;51.522;10.702;2023-11-19T12:41:50;98272.22;;;12.02;92.93
45621;BME280;31345;51.522;10.702;2023-11-19T12:44:18;98279.72;;;12.17;93.00
45621;BME280;31345;51.522;10.702;2023-11-19T12:46:46;98288.72;;;12.24;93.61
45621;BME280;31345;51.522;10.702;2023-11-19T12:49:13;98280.19;;;12.32;91.97
45621;BME280;31345;51.522;10.702;2023-11-19T12:51:41;98283.25;;;12.37;92.92
45621;BME280;31345;51.522;10.702;2023-11-19T12:54:10;98294.06;;;12.23;93.52
45621;BME280;31345;51.522;10.702;2023-11-19T12:56:38;98291.25;;;12.04;94.66
45621;BME280;31345;51.522;10.702;2023-11-19T12:59:11;98294.69;;;11.83;96.10
45621;BME280;31345;51.522;10.702;2023-11-19T13:01:53;98301.81;;;11.72;98.61
45621;BME280;31345;51.522;10.702;2023-11-19T13:04:22;98297.06;;;11.65;99.05
45621;BME280;31345;51.522;10.702;2023-11-19T13:06:55;98300.56;;;11.54;98.56
45621;BME280;31345;51.522;10.702;2023-11-19T13:09:29;98299.03;;;11.52;98.98